sensor_id;sensor_type;location;lat;lon;timestamp;pressure;altitude;pressure_sealevel;temperature;humidity
64933;BME280;51446;53.850;10.662;2023-02-22T00:00:28;101604.09;;;6.80;100.00
64933;BME280;51446;53.850;10.662;2023-02-22T00:03:19;101607.59;;;6.81;100.00
64933;BME280;51446;53.850;10.662;2023-02-22T00:05:50;101604.44;;;6.88;100.00
64933;BME280;51446;53.850;10.662;2023-02-22T00:08:19;101604.44;;;7.07;100.00
64933;BME280;51446;53.850;10.662;2023-02-22T00:10:45;101602.88;;;7.12;100.00
64933;BME280;51446;53.850;10.662;2023-02-22T00:13:12;101598.66;;;7.15;100.00
64933;BME280;51446;53.850;10.662;2023-02-22T00:15:38;101602.34;;;7.20;100.00
64933;BME280;51446;53.850;10.662;2023-02-22T00:18:08;101594.06;;;7.09;100.00
64933;BME280;51446;53.850;10.662;2023-02-22T00:20:36;101594.88;;;7.08;100.00
64933;BME280;51446;53.850;10.662;2023-02-22T00:23:06;101602.31;;;6.99;100.00
64933;BME280;51446;53.850;10.662;2023-02-22T00:25:32;101592.00;;;7.02;100.00
64933;BME280;51446;53.850;10.662;2023-02-22T00:27:58;101592.50;;;6.93;100.00
64933;BME280;51446;53.850;10.662;2023-02-22T00:30:27;101584.63;;;6.91;100.00
64933;BME280;51446;53.850;10.662;2023-02-22T00:32:56;101584.13;;;6.81;100.00
64933;BME280;51446;53.850;10.662;2023-02-22T00:35:25;101584.31;;;6.85;100.00
64933;BME280;51446;53.850;10.662;2023-02-22T00:37:54;101587.06;;;7.08;100.00
64933;BME280;51446;53.850;10.662;2023-02-22T00:40:22;101584.69;;;7.14;100.00
64933;BME280;51446;53.850;10.662;2023-02-22T00:42:48;101587.94;;;7.08;100.00
64933;BME280;51446;53.850;10.662;2023-02-22T00:45:18;101585.25;;;7.07;100.00
64933;BME280;51446;53.850;10.662;2023-02-22T00:47:44;101586.88;;;7.24;100.00
64933;BME280;51446;53.850;10.662;2023-02-22T00:50:10;101596.84;;;7.14;100.00
64933;BME280;51446;53.850;10.662;2023-02-22T00:52:36;101593.16;;;7.08;100.00
64933;BME280;51446;53.850;10.662;2023-02-22T00:55:05;101593.03;;;7.05;100.00
64933;BME280;51446;53.850;10.662;2023-02-22T00:57:30;101586.56;;;6.97;100.00
64933;BME280;51446;53.850;10.662;2023-02-22T00:59:58;101588.78;;;6.88;100.00
64933;BME280;51446;53.850;10.662;2023-02-22T01:02:23;101590.94;;;6.77;100.00
64933;BME280;51446;53.850;10.662;2023-02-22T01:04:49;101582.13;;;6.75;100.00
64933;BME280;51446;53.850;10.662;2023-02-22T01:07:14;101583.94;;;6.76;100.00
64933;BME280;51446;53.850;10.662;2023-02-22T01:09:39;101582.88;;;6.72;100.00
64933;BME280;51446;53.850;10.662;2023-02-22T01:12:06;101586.72;;;6.81;100.00
64933;BME280;51446;53.850;10.662;2023-02-22T01:14:32;101593.53;;;6.77;100.00
64933;BME280;51446;53.850;10.662;2023-02-22T01:16:57;101592.91;;;6.83;100.00
64933;BME280;51446;53.850;10.662;2023-02-22T01:19:23;101586.59;;;6.77;100.00
64933;BME280;51446;53.850;10.662;2023-02-22T01:21:48;101596.22;;;6.79;100.00
64933;BME280;51446;53.850;10.662;2023-02-22T01:24:15;101578.78;;;6.77;100.00
64933;BME280;51446;53.850;10.662;2023-02-22T01:26:42;101588.16;;;6.74;100.00
64933;BME280;51446;53.850;10.662;2023-02-22T01:29:11;101594.56;;;6.81;100.00
64933;BME280;51446;53.850;10.662;2023-02-22T01:31:39;101584.63;;;6.72;100.00
64933;BME280;51446;53.850;10.662;2023-02-22T01:34:05;101581.88;;;6.69;100.00
64933;BME280;51446;53.850;10.662;2023-02-22T01:36:30;101578.09;;;6.62;100.00
64933;BME280;51446;53.850;10.662;2023-02-22T01:38:55;101585.56;;;6.54;100.00
64933;BME280;51446;53.850;10.662;2023-02-22T01:41:21;101578.03;;;6.60;100.00
64933;BME280;51446;53.850;10.662;2023-02-22T01:43:46;101585.91;;;6.62;100.00
64933;BME280;51446;53.850;10.662;2023-02-22T01:46:20;101583.16;;;6.59;100.00
64933;BME280;51446;53.850;10.662;2023-02-22T01:49:01;101580.47;;;6.38;100.00
64933;BME280;51446;53.850;10.662;2023-02-22T01:51:31;101582.13;;;6.36;100.00
64933;BME280;51446;53.850;10.662;2023-02-22T01:54:09;101586.66;;;6.40;100.00
64933;BME280;51446;53.850;10.662;2023-02-22T01:56:39;101585.00;;;6.42;100.00
64933;BME280;51446;53.850;10.662;2023-02-22T01:59:09;101572.19;;;6.47;100.00
64933;BME280;51446;53.850;10.662;2023-02-22T02:01:37;101570.63;;;6.50;100.00
64933;BME280;51446;53.850;10.662;2023-02-22T02:04:06;101570.41;;;6.46;100.00
64933;BME280;51446;53.850;10.662;2023-02-22T02:06:33;101568.44;;;6.40;100.00
64933;BME280;51446;53.850;10.662;2023-02-22T02:09:10;101540.56;;;6.39;100.00
64933;BME280;51446;53.850;10.662;2023-02-22T02:11:39;101576.66;;;6.49;100.00
64933;BME280;51446;53.850;10.662;2023-02-22T02:14:07;101581.84;;;6.49;100.00
64933;BME280;51446;53.850;10.662;2023-02-22T02:16:41;101576.78;;;6.52;100.00
64933;BME280;51446;53.850;10.662;2023-02-22T02:19:16;101573.63;;;6.59;100.00
64933;BME280;51446;53.850;10.662;2023-02-22T02:24:46;101564.06;;;6.58;100.00
64933;BME280;51446;53.850;10.662;2023-02-22T02:27:20;101563.97;;;6.57;100.00
64933;BME280;51446;53.850;10.662;2023-02-22T02:30:10;101558.91;;;6.60;100.00
64933;BME280;51446;53.850;10.662;2023-02-22T02:32:52;101551.84;;;6.57;100.00
64933;BME280;51446;53.850;10.662;2023-02-22T02:35:27;101558.06;;;6.61;100.00
64933;BME280;51446;53.850;10.662;2023-02-22T02:38:02;101546.25;;;6.69;100.00
64933;BME280;51446;53.850;10.662;2023-02-22T02:40:40;101553.97;;;6.66;100.00
64933;BME280;51446;53.850;10.662;2023-02-22T02:43:16;101552.44;;;6.52;100.00
64933;BME280;51446;53.850;10.662;2023-02-22T02:45:46;101554.56;;;6.41;100.00
64933;BME280;51446;53.850;10.662;2023-02-22T02:48:14;101550.59;;;6.49;100.00
64933;BME280;51446;53.850;10.662;2023-02-22T02:50:44;101554.78;;;6.46;100.00
64933;BME280;51446;53.850;10.662;2023-02-22T02:53:13;101553.41;;;6.54;100.00
64933;BME280;51446;53.850;10.662;2023-02-22T02:55:41;101549.34;;;6.60;100.00
64933;BME280;51446;53.850;10.662;2023-02-22T02:58:07;101555.06;;;6.71;100.00
64933;BME280;51446;53.850;10.662;2023-02-22T03:00:36;101554.63;;;6.62;100.00
64933;BME280;51446;53.850;10.662;2023-02-22T03:03:16;101547.50;;;6.58;100.00
64933;BME280;51446;53.850;10.662;2023-02-22T03:08:31;101543.75;;;6.51;100.00
64933;BME280;51446;53.850;10.662;2023-02-22T03:11:06;101544.16;;;6.60;100.00
64933;BME280;51446;53.850;10.662;2023-02-22T03:14:12;101544.09;;;6.59;100.00
64933;BME280;51446;53.850;10.662;2023-02-22T03:16:44;101540.38;;;6.54;100.00
64933;BME280;51446;53.850;10.662;2023-02-22T03:19:10;101537.69;;;6.52;100.00
64933;BME280;51446;53.850;10.662;2023-02-22T03:21:48;101532.97;;;6.43;100.00
64933;BME280;51446;53.850;10.662;2023-02-22T03:25:03;101540.09;;;6.48;100.00
64933;BME280;51446;53.850;10.662;2023-02-22T03:27:05;101529.47;;;6.43;100.00
64933;BME280;51446;53.850;10.662;2023-02-22T03:29:38;101530.25;;;6.60;100.00
64933;BME280;51446;53.850;10.662;2023-02-22T03:32:09;101529.56;;;6.85;100.00
64933;BME280;51446;53.850;10.662;2023-02-22T03:34:44;101523.50;;;6.65;100.00
64933;BME280;51446;53.850;10.662;2023-02-22T03:37:17;101518.03;;;6.59;100.00
64933;BME280;51446;53.850;10.662;2023-02-22T03:39:45;101522.53;;;6.43;100.00
64933;BME280;51446;53.850;10.662;2023-02-22T03:42:16;101530.56;;;6.48;100.00
64933;BME280;51446;53.850;10.662;2023-02-22T03:44:44;101528.06;;;6.50;100.00
64933;BME280;51446;53.850;10.662;2023-02-22T03:47:15;101524.53;;;6.49;100.00
64933;BME280;51446;53.850;10.662;2023-02-22T03:49:48;101518.19;;;6.42;100.00
64933;BME280;51446;53.850;10.662;2023-02-22T03:52:15;101526.81;;;6.41;100.00
64933;BME280;51446;53.850;10.662;2023-02-22T03:54:41;101522.75;;;6.48;100.00
64933;BME280;51446;53.850;10.662;2023-02-22T03:57:13;101527.88;;;6.47;100.00
64933;BME280;51446;53.850;10.662;2023-02-22T03:59:39;101518.78;;;6.56;100.00
64933;BME280;51446;53.850;10.662;2023-02-22T04:02:05;101521.94;;;6.49;100.00
64933;BME280;51446;53.850;10.662;2023-02-22T04:04:30;101525.09;;;6.42;100.00
64933;BME280;51446;53.850;10.662;2023-02-22T04:06:55;101526.88;;;6.43;100.00
64933;BME280;51446;53.850;10.662;2023-02-22T04:09:21;101532.38;;;6.30;100.00
64933;BME280;51446;53.850;10.662;2023-02-22T04:11:46;101525.63;;;6.35;100.00
64933;BME280;51446;53.850;10.662;2023-02-22T04:14:12;101525.44;;;6.30;100.00
64933;BME280;51446;53.850;10.662;2023-02-22T04:16:37;101529.28;;;6.38;100.00
64933;BME280;51446;53.850;10.662;2023-02-22T04:19:03;101530.56;;;6.29;100.00
64933;BME280;51446;53.850;10.662;2023-02-22T04:21:30;101517.13;;;6.19;100.00
64933;BME280;51446;53.850;10.662;2023-02-22T04:23:55;101524.38;;;6.27;100.00
64933;BME280;51446;53.850;10.662;2023-02-22T04:26:21;101525.44;;;6.30;100.00
64933;BME280;51446;53.850;10.662;2023-02-22T04:28:46;101530.22;;;6.21;100.00
64933;BME280;51446;53.850;10.662;2023-02-22T04:31:11;101526.19;;;6.28;100.00
64933;BME280;51446;53.850;10.662;2023-02-22T04:33:36;101532.13;;;6.25;100.00
64933;BME280;51446;53.850;10.662;2023-02-22T04:36:02;101529.31;;;6.20;100.00
64933;BME280;51446;53.850;10.662;2023-02-22T04:38:27;101529.53;;;6.25;100.00
64933;BME280;51446;53.850;10.662;2023-02-22T04:40:53;101533.78;;;6.23;100.00
64933;BME280;51446;53.850;10.662;2023-02-22T04:43:18;101536.72;;;6.31;100.00
64933;BME280;51446;53.850;10.662;2023-02-22T04:45:44;101537.63;;;6.31;100.00
64933;BME280;51446;53.850;10.662;2023-02-22T04:48:09;101533.66;;;6.39;100.00
64933;BME280;51446;53.850;10.662;2023-02-22T04:50:35;101534.91;;;6.28;100.00
64933;BME280;51446;53.850;10.662;2023-02-22T04:53:00;101535.72;;;6.27;100.00
64933;BME280;51446;53.850;10.662;2023-02-22T04:55:25;101535.97;;;6.33;100.00
64933;BME280;51446;53.850;10.662;2023-02-22T04:57:52;101528.25;;;6.15;100.00
64933;BME280;51446;53.850;10.662;2023-02-22T05:00:18;101535.34;;;6.19;100.00
64933;BME280;51446;53.850;10.662;2023-02-22T05:02:46;101537.66;;;6.13;100.00
64933;BME280;51446;53.850;10.662;2023-02-22T05:05:13;101538.47;;;6.12;100.00
64933;BME280;51446;53.850;10.662;2023-02-22T05:07:40;101533.38;;;6.14;100.00
64933;BME280;51446;53.850;10.662;2023-02-22T05:10:05;101539.78;;;6.02;100.00
64933;BME280;51446;53.850;10.662;2023-02-22T05:12:30;101541.94;;;6.11;100.00
64933;BME280;51446;53.850;10.662;2023-02-22T05:14:56;101523.69;;;6.11;100.00
64933;BME280;51446;53.850;10.662;2023-02-22T05:17:21;101529.13;;;6.16;100.00
64933;BME280;51446;53.850;10.662;2023-02-22T05:19:46;101532.31;;;6.10;100.00
64933;BME280;51446;53.850;10.662;2023-02-22T05:22:11;101527.25;;;6.13;100.00
64933;BME280;51446;53.850;10.662;2023-02-22T05:24:37;101528.72;;;6.06;100.00
64933;BME280;51446;53.850;10.662;2023-02-22T05:27:02;101532.13;;;6.05;100.00
64933;BME280;51446;53.850;10.662;2023-02-22T05:29:27;101525.31;;;6.09;100.00
64933;BME280;51446;53.850;10.662;2023-02-22T05:31:53;101524.19;;;6.02;100.00
64933;BME280;51446;53.850;10.662;2023-02-22T05:34:18;101519.91;;;6.04;100.00
64933;BME280;51446;53.850;10.662;2023-02-22T05:36:43;101520.19;;;6.11;100.00
64933;BME280;51446;53.850;10.662;2023-02-22T05:39:09;101526.53;;;5.98;100.00
64933;BME280;51446;53.850;10.662;2023-02-22T05:41:34;101526.84;;;6.04;100.00
64933;BME280;51446;53.850;10.662;2023-02-22T05:43:59;101525.91;;;6.21;100.00
64933;BME280;51446;53.850;10.662;2023-02-22T05:46:26;101526.78;;;6.22;100.00
64933;BME280;51446;53.850;10.662;2023-02-22T05:48:52;101526.25;;;6.10;100.00
64933;BME280;51446;53.850;10.662;2023-02-22T05:51:17;101522.13;;;6.15;100.00
64933;BME280;51446;53.850;10.662;2023-02-22T05:53:44;101523.63;;;6.29;100.00
64933;BME280;51446;53.850;10.662;2023-02-22T05:56:09;101524.94;;;6.19;100.00
64933;BME280;51446;53.850;10.662;2023-02-22T05:58:34;101529.72;;;6.10;100.00
64933;BME280;51446;53.850;10.662;2023-02-22T06:00:59;101523.97;;;6.17;100.00
64933;BME280;51446;53.850;10.662;2023-02-22T06:03:25;101521.78;;;6.27;100.00
64933;BME280;51446;53.850;10.662;2023-02-22T06:05:50;101521.31;;;6.16;100.00
64933;BME280;51446;53.850;10.662;2023-02-22T06:08:15;101524.94;;;6.19;100.00
64933;BME280;51446;53.850;10.662;2023-02-22T06:10:42;101535.03;;;6.31;100.00
64933;BME280;51446;53.850;10.662;2023-02-22T06:13:07;101527.97;;;6.29;100.00
64933;BME280;51446;53.850;10.662;2023-02-22T06:15:33;101535.56;;;6.24;100.00
64933;BME280;51446;53.850;10.662;2023-02-22T06:17:59;101529.94;;;6.15;100.00
64933;BME280;51446;53.850;10.662;2023-02-22T06:20:26;101539.41;;;6.13;100.00
64933;BME280;51446;53.850;10.662;2023-02-22T06:22:54;101548.22;;;6.16;100.00
64933;BME280;51446;53.850;10.662;2023-02-22T06:25:23;101538.47;;;6.12;100.00
64933;BME280;51446;53.850;10.662;2023-02-22T06:27:49;101548.38;;;6.19;100.00
64933;BME280;51446;53.850;10.662;2023-02-22T06:30:18;101538.78;;;6.38;100.00
64933;BME280;51446;53.850;10.662;2023-02-22T06:32:44;101539.59;;;6.17;100.00
64933;BME280;51446;53.850;10.662;2023-02-22T06:35:09;101542.94;;;6.15;100.00
64933;BME280;51446;53.850;10.662;2023-02-22T06:37:34;101529.06;;;6.14;100.00
64933;BME280;51446;53.850;10.662;2023-02-22T06:39:59;101534.19;;;6.13;100.00
64933;BME280;51446;53.850;10.662;2023-02-22T06:42:25;101527.63;;;6.21;100.00
64933;BME280;51446;53.850;10.662;2023-02-22T06:44:50;101523.97;;;6.17;100.00
64933;BME280;51446;53.850;10.662;2023-02-22T06:47:15;101526.78;;;6.22;100.00
64933;BME280;51446;53.850;10.662;2023-02-22T06:49:40;101522.75;;;6.29;100.00
64933;BME280;51446;53.850;10.662;2023-02-22T06:52:07;101522.16;;;6.34;100.00
64933;BME280;51446;53.850;10.662;2023-02-22T06:54:33;101527.63;;;6.40;100.00
64933;BME280;51446;53.850;10.662;2023-02-22T06:56:58;101524.94;;;6.39;100.00
64933;BME280;51446;53.850;10.662;2023-02-22T06:59:24;101513.84;;;6.63;100.00
64933;BME280;51446;53.850;10.662;2023-02-22T07:01:49;101523.78;;;6.52;100.00
64933;BME280;51446;53.850;10.662;2023-02-22T07:04:14;101522.63;;;6.65;100.00
64933;BME280;51446;53.850;10.662;2023-02-22T07:06:45;101521.38;;;6.56;100.00
64933;BME280;51446;53.850;10.662;2023-02-22T07:09:11;101525.75;;;6.38;100.00
64933;BME280;51446;53.850;10.662;2023-02-22T07:11:37;101524.88;;;6.37;100.00
64933;BME280;51446;53.850;10.662;2023-02-22T07:14:03;101520.63;;;6.59;100.00
64933;BME280;51446;53.850;10.662;2023-02-22T07:16:28;101522.97;;;6.53;100.00
64933;BME280;51446;53.850;10.662;2023-02-22T07:18:54;101522.41;;;6.40;100.00
64933;BME280;51446;53.850;10.662;2023-02-22T07:21:19;101526.94;;;6.45;100.00
64933;BME280;51446;53.850;10.662;2023-02-22T07:23:50;101527.41;;;6.55;100.00
64933;BME280;51446;53.850;10.662;2023-02-22T07:26:16;101526.53;;;6.55;100.00
64933;BME280;51446;53.850;10.662;2023-02-22T07:28:41;101533.78;;;6.62;100.00
64933;BME280;51446;53.850;10.662;2023-02-22T07:31:06;101522.81;;;6.69;100.00
64933;BME280;51446;53.850;10.662;2023-02-22T07:33:31;101535.09;;;6.72;100.00
64933;BME280;51446;53.850;10.662;2023-02-22T07:35:57;101526.16;;;6.67;100.00
64933;BME280;51446;53.850;10.662;2023-02-22T07:38:22;101528.94;;;6.70;100.00
64933;BME280;51446;53.850;10.662;2023-02-22T07:40:47;101532.28;;;6.67;100.00
64933;BME280;51446;53.850;10.662;2023-02-22T07:43:21;101542.66;;;6.66;100.00
64933;BME280;51446;53.850;10.662;2023-02-22T07:45:49;101532.53;;;6.73;100.00
64933;BME280;51446;53.850;10.662;2023-02-22T07:48:15;101520.06;;;6.66;100.00
64933;BME280;51446;53.850;10.662;2023-02-22T07:50:41;101528.22;;;6.74;100.00
64933;BME280;51446;53.850;10.662;2023-02-22T07:53:11;101531.94;;;6.79;100.00
64933;BME280;51446;53.850;10.662;2023-02-22T07:55:37;101533.66;;;6.79;100.00
64933;BME280;51446;53.850;10.662;2023-02-22T07:58:06;101537.38;;;6.64;100.00
64933;BME280;51446;53.850;10.662;2023-02-22T08:00:34;101531.66;;;6.73;100.00
64933;BME280;51446;53.850;10.662;2023-02-22T08:03:01;101538.09;;;6.81;100.00
64933;BME280;51446;53.850;10.662;2023-02-22T08:05:28;101533.41;;;6.93;100.00
64933;BME280;51446;53.850;10.662;2023-02-22T08:07:54;101539.38;;;6.91;100.00
64933;BME280;51446;53.850;10.662;2023-02-22T08:10:21;101535.75;;;6.87;100.00
64933;BME280;51446;53.850;10.662;2023-02-22T08:12:48;101539.50;;;6.94;100.00
64933;BME280;51446;53.850;10.662;2023-02-22T08:17:44;101526.75;;;7.00;100.00
64933;BME280;51446;53.850;10.662;2023-02-22T08:20:09;101534.56;;;7.00;100.00
64933;BME280;51446;53.850;10.662;2023-02-22T08:22:34;101531.00;;;6.98;100.00
64933;BME280;51446;53.850;10.662;2023-02-22T08:25:00;101537.56;;;7.09;100.00
64933;BME280;51446;53.850;10.662;2023-02-22T08:27:27;101536.00;;;7.13;100.00
64933;BME280;51446;53.850;10.662;2023-02-22T08:29:53;101531.91;;;6.99;100.00
64933;BME280;51446;53.850;10.662;2023-02-22T08:32:20;101528.00;;;7.10;100.00
64933;BME280;51446;53.850;10.662;2023-02-22T08:34:46;101532.34;;;7.09;100.00
64933;BME280;51446;53.850;10.662;2023-02-22T08:37:11;101526.63;;;7.18;100.00
64933;BME280;51446;53.850;10.662;2023-02-22T08:39:37;101525.34;;;7.29;100.00
64933;BME280;51446;53.850;10.662;2023-02-22T08:42:02;101522.22;;;7.17;100.00
64933;BME280;51446;53.850;10.662;2023-02-22T08:44:27;101519.03;;;7.24;100.00
64933;BME280;51446;53.850;10.662;2023-02-22T08:46:53;101512.94;;;7.24;100.00
64933;BME280;51446;53.850;10.662;2023-02-22T08:49:19;101518.91;;;7.21;100.00
64933;BME280;51446;53.850;10.662;2023-02-22T08:51:44;101511.28;;;7.26;100.00
64933;BME280;51446;53.850;10.662;2023-02-22T08:54:10;101504.03;;;7.40;100.00
64933;BME280;51446;53.850;10.662;2023-02-22T08:56:35;101506.34;;;7.55;100.00
64933;BME280;51446;53.850;10.662;2023-02-22T08:59:00;101503.56;;;7.50;100.00
64933;BME280;51446;53.850;10.662;2023-02-22T09:01:25;101507.03;;;7.49;100.00
64933;BME280;51446;53.850;10.662;2023-02-22T09:03:53;101510.28;;;7.66;100.00
64933;BME280;51446;53.850;10.662;2023-02-22T09:06:20;101506.63;;;7.61;100.00
64933;BME280;51446;53.850;10.662;2023-02-22T09:08:45;101501.22;;;7.56;100.00
64933;BME280;51446;53.850;10.662;2023-02-22T09:11:10;101495.63;;;7.70;100.00
64933;BME280;51446;53.850;10.662;2023-02-22T09:13:36;101492.56;;;7.80;100.00
64933;BME280;51446;53.850;10.662;2023-02-22T09:16:01;101492.78;;;7.86;100.00
64933;BME280;51446;53.850;10.662;2023-02-22T09:18:27;101488.75;;;7.94;100.00
64933;BME280;51446;53.850;10.662;2023-02-22T09:20:52;101487.00;;;7.95;100.00
64933;BME280;51446;53.850;10.662;2023-02-22T09:23:18;101476.13;;;8.05;100.00
64933;BME280;51446;53.850;10.662;2023-02-22T09:25:45;101477.03;;;8.07;100.00
64933;BME280;51446;53.850;10.662;2023-02-22T09:28:10;101480.00;;;8.41;100.00
64933;BME280;51446;53.850;10.662;2023-02-22T09:30:36;101478.63;;;8.50;100.00
64933;BME280;51446;53.850;10.662;2023-02-22T09:33:07;101468.25;;;8.78;100.00
64933;BME280;51446;53.850;10.662;2023-02-22T09:35:37;101478.50;;;8.97;100.00
64933;BME280;51446;53.850;10.662;2023-02-22T09:38:06;101471.75;;;9.04;100.00
64933;BME280;51446;53.850;10.662;2023-02-22T09:40:33;101470.28;;;8.87;100.00
64933;BME280;51446;53.850;10.662;2023-02-22T09:48:28;101462.06;;;9.01;100.00
64933;BME280;51446;53.850;10.662;2023-02-22T09:50:58;101465.13;;;8.88;100.00
64933;BME280;51446;53.850;10.662;2023-02-22T09:53:35;101473.97;;;8.66;100.00
64933;BME280;51446;53.850;10.662;2023-02-22T09:56:07;101470.00;;;8.77;100.00
64933;BME280;51446;53.850;10.662;2023-02-22T09:58:38;101469.88;;;8.74;100.00
64933;BME280;51446;53.850;10.662;2023-02-22T10:06:14;101467.44;;;8.79;100.00
64933;BME280;51446;53.850;10.662;2023-02-22T10:08:42;101461.91;;;8.97;100.00
64933;BME280;51446;53.850;10.662;2023-02-22T10:11:23;101455.81;;;8.96;100.00
64933;BME280;51446;53.850;10.662;2023-02-22T10:16:39;101446.91;;;9.18;100.00
64933;BME280;51446;53.850;10.662;2023-02-22T10:19:28;101450.53;;;9.49;100.00
64933;BME280;51446;53.850;10.662;2023-02-22T10:27:35;101454.03;;;9.23;100.00
64933;BME280;51446;53.850;10.662;2023-02-22T10:30:19;101449.63;;;8.94;100.00
64933;BME280;51446;53.850;10.662;2023-02-22T10:32:47;101454.84;;;8.94;100.00
64933;BME280;51446;53.850;10.662;2023-02-22T10:35:26;101446.59;;;9.08;100.00
64933;BME280;51446;53.850;10.662;2023-02-22T10:37:58;101451.78;;;9.06;100.00
64933;BME280;51446;53.850;10.662;2023-02-22T10:40:26;101439.25;;;8.97;100.00
64933;BME280;51446;53.850;10.662;2023-02-22T10:43:01;101441.59;;;9.15;100.00
64933;BME280;51446;53.850;10.662;2023-02-22T10:45:29;101435.75;;;9.24;100.00
64933;BME280;51446;53.850;10.662;2023-02-22T10:47:58;101423.69;;;9.28;100.00
64933;BME280;51446;53.850;10.662;2023-02-22T10:50:30;101432.97;;;9.18;100.00
64933;BME280;51446;53.850;10.662;2023-02-22T10:52:55;101434.94;;;9.25;100.00
64933;BME280;51446;53.850;10.662;2023-02-22T10:55:21;101435.56;;;9.18;100.00
64933;BME280;51446;53.850;10.662;2023-02-22T10:57:48;101433.00;;;9.19;100.00
64933;BME280;51446;53.850;10.662;2023-02-22T11:00:27;101432.47;;;9.30;100.00
64933;BME280;51446;53.850;10.662;2023-02-22T11:02:56;101425.22;;;9.21;100.00
64933;BME280;51446;53.850;10.662;2023-02-22T11:05:34;101429.75;;;9.27;100.00
64933;BME280;51446;53.850;10.662;2023-02-22T11:10:47;101423.91;;;9.35;100.00
64933;BME280;51446;53.850;10.662;2023-02-22T11:13:30;101426.16;;;9.25;100.00
64933;BME280;51446;53.850;10.662;2023-02-22T11:15:59;101423.69;;;9.28;100.00
64933;BME280;51446;53.850;10.662;2023-02-22T11:18:31;101418.88;;;9.14;100.00
64933;BME280;51446;53.850;10.662;2023-02-22T11:21:05;101422.22;;;9.10;100.00
64933;BME280;51446;53.850;10.662;2023-02-22T11:23:33;101421.53;;;9.16;100.00
64933;BME280;51446;53.850;10.662;2023-02-22T11:26:02;101406.94;;;9.23;100.00
64933;BME280;51446;53.850;10.662;2023-02-22T11:28:29;101395.84;;;9.31;100.00
64933;BME280;51446;53.850;10.662;2023-02-22T11:30:58;101403.75;;;9.33;100.00
64933;BME280;51446;53.850;10.662;2023-02-22T11:33:33;101402.03;;;9.62;100.00
64933;BME280;51446;53.850;10.662;2023-02-22T11:36:00;101395.22;;;9.69;100.00
64933;BME280;51446;53.850;10.662;2023-02-22T11:38:31;101386.41;;;9.65;100.00
64933;BME280;51446;53.850;10.662;2023-02-22T11:41:11;101381.97;;;9.63;100.00
64933;BME280;51446;53.850;10.662;2023-02-22T11:43:44;101377.84;;;9.71;100.00
64933;BME280;51446;53.850;10.662;2023-02-22T11:46:17;101379.13;;;9.85;100.00
64933;BME280;51446;53.850;10.662;2023-02-22T11:48:59;101366.84;;;9.83;100.00
64933;BME280;51446;53.850;10.662;2023-02-22T11:51:52;101376.72;;;9.93;100.00
64933;BME280;51446;53.850;10.662;2023-02-22T11:57:14;101357.88;;;10.06;100.00
64933;BME280;51446;53.850;10.662;2023-02-22T12:02:37;101351.41;;;10.96;100.00
64933;BME280;51446;53.850;10.662;2023-02-22T12:05:25;101342.06;;;11.07;100.00
64933;BME280;51446;53.850;10.662;2023-02-22T12:11:12;101342.00;;;11.04;100.00
64933;BME280;51446;53.850;10.662;2023-02-22T12:16:40;101338.31;;;10.97;100.00
64933;BME280;51446;53.850;10.662;2023-02-22T12:22:07;101343.53;;;10.96;100.00
64933;BME280;51446;53.850;10.662;2023-02-22T12:27:23;101334.22;;;10.37;100.00
64933;BME280;51446;53.850;10.662;2023-02-22T12:30:04;101325.09;;;10.22;100.00
64933;BME280;51446;53.850;10.662;2023-02-22T12:32:49;101327.63;;;10.19;100.00
64933;BME280;51446;53.850;10.662;2023-02-22T12:35:22;101314.13;;;10.04;100.00
64933;BME280;51446;53.850;10.662;2023-02-22T12:38:12;101321.00;;;9.99;100.00
64933;BME280;51446;53.850;10.662;2023-02-22T12:40:45;101321.78;;;9.96;100.00
64933;BME280;51446;53.850;10.662;2023-02-22T12:43:31;101320.53;;;10.15;100.00
64933;BME280;51446;53.850;10.662;2023-02-22T12:46:06;101318.75;;;10.13;100.00
64933;BME280;51446;53.850;10.662;2023-02-22T12:51:48;101314.19;;;10.05;100.00
64933;BME280;51446;53.850;10.662;2023-02-22T12:54:24;101310.44;;;9.96;100.00
64933;BME280;51446;53.850;10.662;2023-02-22T12:56:55;101303.31;;;9.92;100.00
64933;BME280;51446;53.850;10.662;2023-02-22T13:04:38;101304.03;;;9.86;100.00
64933;BME280;51446;53.850;10.662;2023-02-22T13:07:14;101296.38;;;9.94;100.00
64933;BME280;51446;53.850;10.662;2023-02-22T13:10:05;101295.97;;;10.10;100.00
64933;BME280;51446;53.850;10.662;2023-02-22T13:21:18;101291.00;;;10.22;100.00
64933;BME280;51446;53.850;10.662;2023-02-22T13:23:57;101292.03;;;10.28;100.00
64933;BME280;51446;53.850;10.662;2023-02-22T13:37:08;101285.75;;;10.21;100.00
64933;BME280;51446;53.850;10.662;2023-02-22T13:42:47;101269.91;;;10.51;100.00
64933;BME280;51446;53.850;10.662;2023-02-22T13:48:23;101267.50;;;10.25;100.00
64933;BME280;51446;53.850;10.662;2023-02-22T13:50:57;101271.69;;;10.17;100.00
64933;BME280;51446;53.850;10.662;2023-02-22T13:53:29;101269.03;;;10.16;100.00
64933;BME280;51446;53.850;10.662;2023-02-22T13:55:58;101266.19;;;10.08;100.00
64933;BME280;51446;53.850;10.662;2023-02-22T13:58:24;101266.94;;;10.04;100.00
64933;BME280;51446;53.850;10.662;2023-02-22T14:00:55;101265.16;;;10.01;100.00
64933;BME280;51446;53.850;10.662;2023-02-22T14:05:54;101278.28;;;10.01;100.00
64933;BME280;51446;53.850;10.662;2023-02-22T14:10:50;101264.66;;;10.16;100.00
64933;BME280;51446;53.850;10.662;2023-02-22T14:13:17;101262.00;;;10.15;100.00